TOCUM weather

Aviosuperficie Cumiana
Cumiana (TO), Piedmont, Italy

Public forecast

Using degrees Celsius for public forecast. Weather courtesy of forecast.io.

Closest aviation weather report (METAR) to Aviosuperficie Cumiana

Closest report is Torino-Aeritalia Airport, 11.5 nm (21.4 km) NE. Retrieved 2020/07/02 12:50 UTC (23 minutes ago):

LIMA 021250Z 25004KT 9999 FEW030 29/18 Q1011

Closest aviation forecast (TAF) to Aviosuperficie Cumiana

Closest forecast is Turin Airport, 18.3 nm (33.9 km) NNE. Retrieved 2020/07/02 12:21 UTC (52 minutes ago):

TAF LIMF 021100Z 0212/0312 VRB05KT 9999 SCT040 TEMPO 0212/0224 TSRA